Time;durP1;ratioP1;P1;durP2;ratioP2;P2;SDS_P1;SDS_P2;PMS_P1;PMS_P2;Temp;Humidity;BMP_temperature;BMP_pressure;BME280_temperature;BME280_humidity;BME280_pressure;Samples;Min_cycle;Max_cycle;Signal;HPM_P1;HPM_P2
2022/11/09 00:02:06;;;;;;;5.20;2.20;;;;;;;;;;5046104;28;20490;-64
2022/11/09 00:04:31;;;;;;;5.97;2.10;;;;;;;;;;5052018;28;20028;-62
2022/11/09 00:06:56;;;;;;;5.40;2.40;;;;;;;;;;5054913;28;20039;-62
2022/11/09 00:09:21;;;;;;;6.13;2.20;;;;;;;;;;5045427;28;20033;-62
2022/11/09 00:11:47;;;;;;;4.97;2.03;;;;;;;;;;5049323;28;20060;-61
2022/11/09 00:14:15;;;;;;;6.80;2.60;;;;;;;;;;5045708;28;20025;-62
2022/11/09 00:16:41;;;;;;;7.43;2.67;;;;;;;;;;5045328;28;20436;-62
2022/11/09 00:19:06;;;;;;;4.27;2.23;;;;;;;;;;5044800;28;20032;-62
2022/11/09 00:21:31;;;;;;;8.23;2.23;;;;;;;;;;5047619;28;20104;-62
2022/11/09 00:23:56;;;;;;;6.20;2.10;;;;;;;;;;5041507;28;20498;-62
2022/11/09 00:26:22;;;;;;;5.47;2.10;;;;;;;;;;5049478;28;20495;-61
2022/11/09 00:28:48;;;;;;;6.50;2.30;;;;;;;;;;5052234;28;20495;-63
2022/11/09 00:31:15;;;;;;;7.67;2.43;;;;;;;;;;5054292;28;20028;-63
2022/11/09 00:33:40;;;;;;;6.33;2.30;;;;;;;;;;5047680;28;20033;-63
2022/11/09 00:36:07;;;;;;;4.13;2.10;;;;;;;;;;5049171;28;20108;-63
2022/11/09 00:38:33;;;;;;;4.83;2.10;;;;;;;;;;5046761;28;20111;-63
2022/11/09 00:41:05;;;;;;;5.17;2.10;;;;;;;;;;5044602;28;20107;-63
2022/11/09 00:43:30;;;;;;;5.60;2.30;;;;;;;;;;5042845;28;20044;-63
2022/11/09 00:45:55;;;;;;;4.87;2.17;;;;;;;;;;5040760;28;20547;-62
2022/11/09 00:48:20;;;;;;;5.40;2.00;;;;;;;;;;5048022;28;20538;-62
2022/11/09 00:50:50;;;;;;;5.20;2.00;;;;;;;;;;5045359;28;20495;-63
2022/11/09 00:53:15;;;;;;;6.00;2.13;;;;;;;;;;5046812;28;20029;-63
2022/11/09 00:55:40;;;;;;;7.20;2.27;;;;;;;;;;5047558;28;20017;-63
2022/11/09 00:58:05;;;;;;;6.33;2.20;;;;;;;;;;5047978;28;20021;-63
2022/11/09 01:00:30;;;;;;;7.87;2.33;;;;;;;;;;5041303;28;20039;-63
2022/11/09 01:02:56;;;;;;;4.27;2.23;;;;;;;;;;5043383;28;20029;-61
2022/11/09 01:05:21;;;;;;;6.40;2.10;;;;;;;;;;5045863;28;20028;-62
2022/11/09 01:07:46;;;;;;;6.83;2.10;;;;;;;;;;5044702;28;20025;-61
2022/11/09 01:10:11;;;;;;;5.63;2.20;;;;;;;;;;5048962;28;20039;-62
2022/11/09 01:12:36;;;;;;;9.97;2.30;;;;;;;;;;5046582;28;20029;-62
2022/11/09 01:15:02;;;;;;;6.77;2.20;;;;;;;;;;5046256;28;20451;-61
2022/11/09 01:17:27;;;;;;;7.13;2.17;;;;;;;;;;5047633;28;20029;-62
2022/11/09 01:19:52;;;;;;;4.80;2.17;;;;;;;;;;5048371;28;20045;-62
2022/11/09 01:22:18;;;;;;;4.40;2.10;;;;;;;;;;5050165;28;20444;-62
2022/11/09 01:24:44;;;;;;;5.27;2.23;;;;;;;;;;5052251;28;20021;-61
2022/11/09 01:27:09;;;;;;;5.03;2.10;;;;;;;;;;5054066;28;20078;-62
2022/11/09 01:29:34;;;;;;;7.20;2.23;;;;;;;;;;5048765;28;20025;-62
2022/11/09 01:31:59;;;;;;;5.37;1.90;;;;;;;;;;5051467;28;20090;-62
2022/11/09 01:34:26;;;;;;;4.70;2.10;;;;;;;;;;5047839;28;20384;-62
2022/11/09 01:36:52;;;;;;;8.27;2.10;;;;;;;;;;5049077;28;20032;-62
2022/11/09 01:39:18;;;;;;;7.00;2.13;;;;;;;;;;5051630;28;20052;-62
2022/11/09 01:41:43;;;;;;;6.70;2.20;;;;;;;;;;5053838;28;20100;-62
2022/11/09 01:44:08;;;;;;;6.07;2.13;;;;;;;;;;5051436;28;20104;-62
2022/11/09 01:46:40;;;;;;;5.20;2.30;;;;;;;;;;5045843;28;20503;-63
2022/11/09 01:49:11;;;;;;;5.93;2.15;;;;;;;;;;5047944;28;20032;-63
2022/11/09 01:51:49;;;;;;;5.82;2.00;;;;;;;;;;5046132;28;20075;-62
2022/11/09 01:54:23;;;;;;;5.60;2.10;;;;;;;;;;5046590;28;20041;-63
2022/11/09 01:56:50;;;;;;;4.60;1.90;;;;;;;;;;5047569;28;20027;-62
2022/11/09 01:59:19;;;;;;;5.73;2.03;;;;;;;;;;5045015;28;20107;-62
2022/11/09 02:01:45;;;;;;;7.43;2.00;;;;;;;;;;5043742;28;20381;-63
2022/11/09 02:04:31;;;;;;;5.57;1.90;;;;;;;;;;5062152;28;20025;-62
2022/11/09 02:06:57;;;;;;;4.20;2.07;;;;;;;;;;5046753;28;20035;-64
2022/11/09 02:09:26;;;;;;;7.93;1.90;;;;;;;;;;5054290;28;20349;-63
2022/11/09 02:11:51;;;;;;;6.90;2.10;;;;;;;;;;5049293;28;20047;-62
2022/11/09 02:14:17;;;;;;;5.77;2.20;;;;;;;;;;5047660;28;20029;-62
2022/11/09 02:16:43;;;;;;;4.10;1.70;;;;;;;;;;5051568;28;20028;-62
2022/11/09 02:19:08;;;;;;;4.27;1.90;;;;;;;;;;5054997;28;20087;-62
2022/11/09 02:21:34;;;;;;;7.23;2.00;;;;;;;;;;5048258;28;20115;-62
2022/11/09 02:23:59;;;;;;;6.50;1.90;;;;;;;;;;5049003;28;20083;-63
2022/11/09 02:26:46;;;;;;;7.03;1.77;;;;;;;;;;5044130;28;20052;-63
2022/11/09 02:29:13;;;;;;;5.27;1.80;;;;;;;;;;5049570;28;20027;-62
2022/11/09 02:31:41;;;;;;;6.13;2.00;;;;;;;;;;5049371;28;20050;-62
2022/11/09 02:34:12;;;;;;;4.97;1.90;;;;;;;;;;5047430;28;20043;-61
2022/11/09 02:36:37;;;;;;;5.68;1.45;;;;;;;;;;5049305;28;20024;-64
2022/11/09 02:39:03;;;;;;;5.70;1.90;;;;;;;;;;5050825;28;20039;-62
2022/11/09 02:41:29;;;;;;;4.20;1.63;;;;;;;;;;5047896;28;20473;-62
2022/11/09 02:43:55;;;;;;;5.43;1.80;;;;;;;;;;5046566;28;20068;-62
2022/11/09 02:46:24;;;;;;;4.90;1.80;;;;;;;;;;5047424;28;20481;-64
2022/11/09 02:48:49;;;;;;;5.10;1.83;;;;;;;;;;5047298;28;20025;-63
2022/11/09 02:51:15;;;;;;;3.37;1.10;;;;;;;;;;5050082;28;20021;-63
2022/11/09 02:53:40;;;;;;;4.43;1.60;;;;;;;;;;5048387;28;20044;-62
2022/11/09 02:56:05;;;;;;;5.23;1.60;;;;;;;;;;5051838;28;20032;-64
2022/11/09 02:58:30;;;;;;;3.50;1.50;;;;;;;;;;5047618;28;20032;-63
2022/11/09 03:00:56;;;;;;;3.30;1.40;;;;;;;;;;5047812;28;20524;-63
2022/11/09 03:03:21;;;;;;;6.10;1.73;;;;;;;;;;5045918;28;20100;-63
2022/11/09 03:05:46;;;;;;;4.17;1.70;;;;;;;;;;5051558;28;20425;-63
2022/11/09 03:08:11;;;;;;;7.63;1.50;;;;;;;;;;5046307;28;20043;-63
2022/11/09 03:10:36;;;;;;;5.63;1.70;;;;;;;;;;5056601;28;20111;-63
2022/11/09 03:13:02;;;;;;;4.43;1.70;;;;;;;;;;5043867;28;20052;-64
2022/11/09 03:15:27;;;;;;;6.70;1.77;;;;;;;;;;5045648;28;20067;-64
2022/11/09 03:17:52;;;;;;;7.93;1.70;;;;;;;;;;5048045;28;20468;-64
2022/11/09 03:20:18;;;;;;;7.50;1.50;;;;;;;;;;5048848;28;20126;-64
2022/11/09 03:22:43;;;;;;;4.47;1.57;;;;;;;;;;5040656;28;20155;-64
2022/11/09 03:25:08;;;;;;;6.77;1.70;;;;;;;;;;5047837;28;20108;-64
2022/11/09 03:27:33;;;;;;;5.67;1.63;;;;;;;;;;5047295;28;20100;-63
2022/11/09 03:29:59;;;;;;;5.60;1.73;;;;;;;;;;5050047;28;20432;-63
2022/11/09 03:32:24;;;;;;;5.47;1.70;;;;;;;;;;5044928;28;20493;-63
2022/11/09 03:34:50;;;;;;;4.90;1.70;;;;;;;;;;5048282;28;20503;-64
2022/11/09 03:37:15;;;;;;;3.23;1.57;;;;;;;;;;5050081;28;20055;-64
2022/11/09 03:39:40;;;;;;;6.37;1.80;;;;;;;;;;5049685;28;20048;-64
2022/11/09 03:42:06;;;;;;;7.00;1.90;;;;;;;;;;5047632;28;20020;-63
2022/11/09 03:44:31;;;;;;;3.43;1.47;;;;;;;;;;5040023;28;20025;-64
2022/11/09 03:46:56;;;;;;;2.83;1.50;;;;;;;;;;5042214;28;20028;-64
2022/11/09 03:49:22;;;;;;;6.73;1.80;;;;;;;;;;5053291;28;20024;-64
2022/11/09 03:51:47;;;;;;;3.93;1.60;;;;;;;;;;5048101;28;20079;-64
2022/11/09 03:54:13;;;;;;;3.17;1.60;;;;;;;;;;5051194;28;20064;-64
2022/11/09 03:56:38;;;;;;;4.33;1.83;;;;;;;;;;5048686;28;20029;-64
2022/11/09 03:59:03;;;;;;;5.27;2.00;;;;;;;;;;5048369;28;20108;-63
2022/11/09 04:01:28;;;;;;;4.37;1.50;;;;;;;;;;5044367;28;20077;-63
2022/11/09 04:03:54;;;;;;;8.57;1.70;;;;;;;;;;5049337;28;20253;-63
2022/11/09 04:06:19;;;;;;;5.73;1.63;;;;;;;;;;5054122;28;20029;-63
2022/11/09 04:08:47;;;;;;;3.97;1.60;;;;;;;;;;5044360;28;20533;-63
2022/11/09 04:11:12;;;;;;;6.07;1.90;;;;;;;;;;5052077;28;20543;-63
2022/11/09 04:13:37;;;;;;;3.97;1.90;;;;;;;;;;5049555;28;20021;-63
2022/11/09 04:16:03;;;;;;;5.43;1.60;;;;;;;;;;5043049;28;20029;-63
2022/11/09 04:18:28;;;;;;;5.33;1.77;;;;;;;;;;5051458;28;20082;-63
2022/11/09 04:21:25;;;;;;;3.33;1.60;;;;;;;;;;5051612;28;20388;-64
2022/11/09 04:23:51;;;;;;;4.93;1.67;;;;;;;;;;5049201;28;20021;-63
2022/11/09 04:26:16;;;;;;;4.77;1.47;;;;;;;;;;5052243;28;20445;-63
2022/11/09 04:28:41;;;;;;;4.73;1.70;;;;;;;;;;5050691;28;20024;-63
2022/11/09 04:31:06;;;;;;;5.27;1.53;;;;;;;;;;5050613;28;20025;-63
2022/11/09 04:33:32;;;;;;;5.23;1.73;;;;;;;;;;5049207;28;20412;-63
2022/11/09 04:36:01;;;;;;;4.20;1.47;;;;;;;;;;5044651;28;20369;-63
2022/11/09 04:38:26;;;;;;;5.03;1.40;;;;;;;;;;5049006;28;20399;-64
2022/11/09 04:40:52;;;;;;;7.13;1.37;;;;;;;;;;5046007;28;20027;-63
2022/11/09 04:43:17;;;;;;;5.27;1.90;;;;;;;;;;5042185;28;20025;-63
2022/11/09 04:45:43;;;;;;;4.47;1.30;;;;;;;;;;5041932;28;20044;-63
2022/11/09 04:48:09;;;;;;;4.57;1.47;;;;;;;;;;5049045;28;20044;-63
2022/11/09 04:50:34;;;;;;;4.17;1.60;;;;;;;;;;5052094;28;20388;-63
2022/11/09 04:53:10;;;;;;;5.87;1.67;;;;;;;;;;5044746;28;20032;-64
2022/11/09 04:55:35;;;;;;;3.90;1.50;;;;;;;;;;5050912;28;20396;-63
2022/11/09 04:58:01;;;;;;;7.30;1.50;;;;;;;;;;5047172;28;20024;-63
2022/11/09 05:00:26;;;;;;;3.27;1.40;;;;;;;;;;5042271;28;20106;-63
2022/11/09 05:02:51;;;;;;;4.60;1.33;;;;;;;;;;5049126;28;20029;-63
2022/11/09 05:05:16;;;;;;;5.67;1.33;;;;;;;;;;5046778;28;20048;-64
2022/11/09 05:07:42;;;;;;;4.57;1.43;;;;;;;;;;5048400;28;20040;-62
2022/11/09 05:10:07;;;;;;;4.70;1.70;;;;;;;;;;5051486;28;20384;-63
2022/11/09 05:12:32;;;;;;;4.47;1.60;;;;;;;;;;5052252;28;20029;-63
2022/11/09 05:14:58;;;;;;;5.07;1.40;;;;;;;;;;5050160;28;20047;-63
2022/11/09 05:17:23;;;;;;;5.63;1.50;;;;;;;;;;5050186;28;20029;-63
2022/11/09 05:19:48;;;;;;;6.40;1.77;;;;;;;;;;5051158;28;20033;-62
2022/11/09 05:24:57;;;;;;;3.33;1.40;;;;;;;;;;5049838;28;20024;-62
2022/11/09 05:27:23;;;;;;;5.13;1.50;;;;;;;;;;5049977;28;20396;-62
2022/11/09 05:29:48;;;;;;;8.20;1.73;;;;;;;;;;5050607;28;20043;-62
2022/11/09 05:35:17;;;;;;;4.50;1.50;;;;;;;;;;5027765;28;20033;-62
2022/11/09 05:37:45;;;;;;;5.60;1.60;;;;;;;;;;5045577;28;20032;-63
2022/11/09 05:40:10;;;;;;;5.93;1.60;;;;;;;;;;5045377;28;20055;-61
2022/11/09 05:42:39;;;;;;;6.93;1.60;;;;;;;;;;5054920;28;20056;-61
2022/11/09 05:45:05;;;;;;;5.83;1.70;;;;;;;;;;5050194;28;20646;-62
2022/11/09 05:47:35;;;;;;;5.57;1.50;;;;;;;;;;5051005;28;20043;-62
2022/11/09 05:50:00;;;;;;;5.10;1.37;;;;;;;;;;5047279;28;20058;-62
2022/11/09 05:52:25;;;;;;;4.87;1.50;;;;;;;;;;5038781;28;20393;-61
2022/11/09 05:54:50;;;;;;;4.73;1.50;;;;;;;;;;5042878;28;20590;-61
2022/11/09 05:57:16;;;;;;;4.60;1.87;;;;;;;;;;5048123;28;20476;-62
2022/11/09 05:59:41;;;;;;;7.13;1.67;;;;;;;;;;5046834;28;20542;-61
2022/11/09 06:02:06;;;;;;;6.17;2.07;;;;;;;;;;5045321;28;20541;-63
2022/11/09 06:04:31;;;;;;;4.23;1.47;;;;;;;;;;5043012;28;20025;-63
2022/11/09 06:06:57;;;;;;;10.77;2.67;;;;;;;;;;5047188;28;20025;-63
2022/11/09 06:09:23;;;;;;;5.70;1.60;;;;;;;;;;5047137;28;20159;-63
2022/11/09 06:11:49;;;;;;;6.90;1.60;;;;;;;;;;5040927;28;20487;-63
2022/11/09 06:14:14;;;;;;;7.07;2.17;;;;;;;;;;5047907;28;20032;-63
2022/11/09 06:16:39;;;;;;;9.67;1.97;;;;;;;;;;5048058;28;20025;-63
2022/11/09 06:19:05;;;;;;;6.87;1.70;;;;;;;;;;5050311;28;20025;-63
2022/11/09 06:21:30;;;;;;;5.90;1.90;;;;;;;;;;5052013;28;20091;-64
2022/11/09 06:23:55;;;;;;;8.13;1.77;;;;;;;;;;5041772;28;20025;-63
2022/11/09 06:26:20;;;;;;;6.10;1.50;;;;;;;;;;5050497;28;20059;-63
2022/11/09 06:28:45;;;;;;;8.07;1.57;;;;;;;;;;5047517;28;20479;-62
2022/11/09 06:31:14;;;;;;;6.33;1.50;;;;;;;;;;5059212;28;20399;-62
2022/11/09 06:33:39;;;;;;;10.63;1.53;;;;;;;;;;5043121;28;20035;-63
2022/11/09 06:36:05;;;;;;;15.03;3.03;;;;;;;;;;5047833;28;20025;-62
2022/11/09 06:38:30;;;;;;;6.53;1.50;;;;;;;;;;5043027;28;20047;-63
2022/11/09 06:40:56;;;;;;;8.57;2.20;;;;;;;;;;5057554;28;20367;-62
2022/11/09 06:43:22;;;;;;;7.73;1.60;;;;;;;;;;5047639;28;20024;-63
2022/11/09 06:45:48;;;;;;;6.13;1.67;;;;;;;;;;5042400;28;20020;-62
2022/11/09 06:48:13;;;;;;;9.47;1.70;;;;;;;;;;5048554;28;20044;-62
2022/11/09 06:50:38;;;;;;;7.27;1.87;;;;;;;;;;5045797;28;20051;-64
2022/11/09 06:53:05;;;;;;;9.30;1.80;;;;;;;;;;5047390;28;20174;-63
2022/11/09 06:55:31;;;;;;;8.50;1.20;;;;;;;;;;5047722;28;20029;-63
2022/11/09 06:57:57;;;;;;;8.57;1.60;;;;;;;;;;5050423;28;20021;-63
2022/11/09 07:00:22;;;;;;;5.07;1.30;;;;;;;;;;5046342;28;20107;-64
2022/11/09 07:02:48;;;;;;;7.97;1.60;;;;;;;;;;5046093;28;20116;-63
2022/11/09 07:05:13;;;;;;;6.50;2.03;;;;;;;;;;5048352;28;20061;-62
2022/11/09 07:07:38;;;;;;;4.83;1.63;;;;;;;;;;5045774;28;20029;-61
2022/11/09 07:10:04;;;;;;;8.00;1.80;;;;;;;;;;5037303;28;20029;-63
2022/11/09 07:12:29;;;;;;;5.70;1.40;;;;;;;;;;5061126;28;20387;-61
2022/11/09 07:14:55;;;;;;;5.40;1.57;;;;;;;;;;5070101;28;20023;-62
2022/11/09 07:17:20;;;;;;;8.37;1.60;;;;;;;;;;5070354;28;20099;-62
2022/11/09 07:19:45;;;;;;;7.90;1.60;;;;;;;;;;5058675;28;20044;-62
2022/11/09 07:22:11;;;;;;;9.67;1.57;;;;;;;;;;5051514;28;20040;-62
2022/11/09 07:24:36;;;;;;;7.67;1.60;;;;;;;;;;5051598;28;20021;-62
2022/11/09 07:27:01;;;;;;;11.60;1.60;;;;;;;;;;5051618;28;20035;-62
2022/11/09 07:29:26;;;;;;;8.13;1.70;;;;;;;;;;5050123;28;20028;-62
2022/11/09 07:31:51;;;;;;;5.83;1.30;;;;;;;;;;5051262;28;20024;-62
2022/11/09 07:34:17;;;;;;;7.53;1.40;;;;;;;;;;5051106;28;20028;-62
2022/11/09 07:36:42;;;;;;;8.37;1.60;;;;;;;;;;5051383;28;20024;-62
2022/11/09 07:39:07;;;;;;;7.23;1.30;;;;;;;;;;5051396;28;20021;-63
2022/11/09 07:41:32;;;;;;;7.73;1.47;;;;;;;;;;5051330;28;20063;-63
2022/11/09 07:43:58;;;;;;;8.60;1.33;;;;;;;;;;5051418;28;20495;-62
2022/11/09 07:46:23;;;;;;;7.30;1.53;;;;;;;;;;5051546;28;20021;-63
2022/11/09 07:48:48;;;;;;;9.10;1.97;;;;;;;;;;5051302;28;20473;-62
2022/11/09 07:51:13;;;;;;;7.90;1.60;;;;;;;;;;5051253;28;20029;-62
2022/11/09 07:53:39;;;;;;;6.18;1.30;;;;;;;;;;5058649;28;20052;-63
2022/11/09 07:56:04;;;;;;;5.55;1.60;;;;;;;;;;5046896;28;20114;-62
2022/11/09 07:58:30;;;;;;;8.20;1.85;;;;;;;;;;5049702;28;20013;-62
2022/11/09 08:00:55;;;;;;;6.88;1.30;;;;;;;;;;5050865;28;20031;-62
2022/11/09 08:03:21;;;;;;;10.07;1.73;;;;;;;;;;5051016;28;20017;-61
2022/11/09 08:05:47;;;;;;;10.47;1.63;;;;;;;;;;5050696;28;20403;-62
2022/11/09 08:08:14;;;;;;;8.80;1.70;;;;;;;;;;5051123;28;20028;-62
2022/11/09 08:10:40;;;;;;;11.57;2.00;;;;;;;;;;5047714;28;20013;-62
2022/11/09 08:13:07;;;;;;;9.63;2.03;;;;;;;;;;5053484;28;20025;-62
2022/11/09 08:15:33;;;;;;;8.50;2.37;;;;;;;;;;5069559;28;20415;-62
2022/11/09 08:18:11;;;;;;;8.23;2.63;;;;;;;;;;5069616;28;20020;-62
2022/11/09 08:20:36;;;;;;;9.47;1.90;;;;;;;;;;5070005;28;20047;-62
2022/11/09 08:23:02;;;;;;;8.43;1.60;;;;;;;;;;5074087;28;20020;-63
2022/11/09 08:25:27;;;;;;;10.25;2.25;;;;;;;;;;5065990;28;20027;-62
2022/11/09 08:27:54;;;;;;;10.25;1.52;;;;;;;;;;5053978;28;20092;-63
2022/11/09 08:30:20;;;;;;;7.18;1.33;;;;;;;;;;5054513;28;20024;-62
2022/11/09 08:32:45;;;;;;;8.77;1.88;;;;;;;;;;5050294;28;20033;-61
2022/11/09 08:35:16;;;;;;;7.60;1.58;;;;;;;;;;5054841;28;20372;-62
2022/11/09 08:37:41;;;;;;;10.30;1.90;;;;;;;;;;5054820;28;20501;-62
2022/11/09 08:40:07;;;;;;;7.90;1.60;;;;;;;;;;5054660;28;20043;-63
2022/11/09 08:42:32;;;;;;;4.82;1.20;;;;;;;;;;5054627;28;20088;-63
2022/11/09 08:44:57;;;;;;;7.82;1.60;;;;;;;;;;5054033;28;20704;-62
2022/11/09 08:47:22;;;;;;;7.72;1.58;;;;;;;;;;5054544;28;20009;-63
2022/11/09 08:49:48;;;;;;;5.72;1.50;;;;;;;;;;5054274;28;20032;-62
2022/11/09 08:52:14;;;;;;;8.88;1.70;;;;;;;;;;5054552;28;20040;-62
2022/11/09 08:54:40;;;;;;;8.52;1.65;;;;;;;;;;5054233;28;20074;-63
2022/11/09 08:57:05;;;;;;;8.68;1.88;;;;;;;;;;5054240;28;20104;-62
2022/11/09 08:59:30;;;;;;;8.13;2.15;;;;;;;;;;5053353;28;20075;-62
2022/11/09 09:01:55;;;;;;;6.05;1.33;;;;;;;;;;5053347;28;20555;-62
2022/11/09 09:04:20;;;;;;;9.73;1.77;;;;;;;;;;5054238;28;20009;-62
2022/11/09 09:06:46;;;;;;;7.03;1.67;;;;;;;;;;5054418;28;20095;-62
2022/11/09 09:09:11;;;;;;;8.43;1.45;;;;;;;;;;5053930;28;20048;-62
2022/11/09 09:11:36;;;;;;;6.75;1.27;;;;;;;;;;5053874;28;20096;-63
2022/11/09 09:14:01;;;;;;;6.50;1.48;;;;;;;;;;5054057;28;20017;-63
2022/11/09 09:16:27;;;;;;;10.00;1.55;;;;;;;;;;5053755;28;20468;-63
2022/11/09 09:18:53;;;;;;;8.07;1.92;;;;;;;;;;5053389;28;20021;-62
2022/11/09 09:21:18;;;;;;;5.03;1.30;;;;;;;;;;5053854;28;20021;-63
2022/11/09 09:23:45;;;;;;;9.75;2.17;;;;;;;;;;5053903;28;20021;-63
2022/11/09 09:26:10;;;;;;;7.20;1.75;;;;;;;;;;5053705;28;20044;-63
2022/11/09 09:28:36;;;;;;;12.85;2.08;;;;;;;;;;5066141;28;20063;-63
2022/11/09 09:31:03;;;;;;;7.97;1.40;;;;;;;;;;5054145;28;20017;-62
2022/11/09 09:33:28;;;;;;;6.57;1.70;;;;;;;;;;5053153;28;20119;-63
2022/11/09 09:35:56;;;;;;;10.15;1.88;;;;;;;;;;5053097;28;20085;-63
2022/11/09 09:38:21;;;;;;;8.73;1.80;;;;;;;;;;5053392;28;20114;-62
2022/11/09 09:40:53;;;;;;;4.57;1.30;;;;;;;;;;5053677;28;20025;-63
2022/11/09 09:43:24;;;;;;;10.48;2.05;;;;;;;;;;5053573;28;20040;-63
2022/11/09 09:45:51;;;;;;;8.95;2.03;;;;;;;;;;5052413;28;20422;-63
2022/11/09 09:48:25;;;;;;;8.10;1.40;;;;;;;;;;5064867;28;20370;-63
2022/11/09 09:50:58;;;;;;;11.52;1.73;;;;;;;;;;5063576;28;20012;-63
2022/11/09 09:53:26;;;;;;;10.48;1.50;;;;;;;;;;5056693;28;20448;-62
2022/11/09 09:55:59;;;;;;;8.30;1.80;;;;;;;;;;5050996;28;20029;-63
2022/11/09 09:58:29;;;;;;;8.88;1.77;;;;;;;;;;5052550;28;20497;-62
2022/11/09 10:00:57;;;;;;;8.25;1.80;;;;;;;;;;5053030;28;20020;-62
2022/11/09 10:03:22;;;;;;;7.30;1.45;;;;;;;;;;5053195;28;20478;-62
2022/11/09 10:06:06;;;;;;;8.20;1.60;;;;;;;;;;5053071;28;20028;-62
2022/11/09 10:08:37;;;;;;;8.60;1.73;;;;;;;;;;5053208;28;20013;-63
2022/11/09 10:11:15;;;;;;;7.28;1.63;;;;;;;;;;5049774;28;20028;-64
2022/11/09 10:13:53;;;;;;;10.27;1.73;;;;;;;;;;5052697;28;20079;-63
2022/11/09 10:16:18;;;;;;;6.68;1.42;;;;;;;;;;5051383;28;20108;-62
2022/11/09 10:18:52;;;;;;;5.68;1.58;;;;;;;;;;5053072;28;20511;-63
2022/11/09 10:21:36;;;;;;;7.53;1.70;;;;;;;;;;5052882;28;20025;-63
2022/11/09 10:24:04;;;;;;;12.30;1.75;;;;;;;;;;5062906;28;20087;-64
2022/11/09 10:26:41;;;;;;;8.85;1.95;;;;;;;;;;5063180;28;20472;-63
2022/11/09 10:29:33;;;;;;;6.40;1.50;;;;;;;;;;5052722;28;20031;-63
2022/11/09 10:32:11;;;;;;;5.50;1.35;;;;;;;;;;5052701;28;20094;-64
2022/11/09 10:34:53;;;;;;;5.82;1.25;;;;;;;;;;5052336;28;20115;-64
2022/11/09 10:37:39;;;;;;;10.88;1.63;;;;;;;;;;5052497;28;20020;-64
2022/11/09 10:40:07;;;;;;;11.00;1.80;;;;;;;;;;5051849;28;20040;-63
2022/11/09 10:42:33;;;;;;;8.38;1.50;;;;;;;;;;5051344;28;20111;-64
2022/11/09 10:44:59;;;;;;;8.27;1.40;;;;;;;;;;5070054;28;20095;-64
2022/11/09 10:47:25;;;;;;;9.10;1.42;;;;;;;;;;5070995;28;20480;-63
2022/11/09 10:50:16;;;;;;;6.43;1.38;;;;;;;;;;5071124;28;20458;-64
2022/11/09 10:52:42;;;;;;;3.50;1.13;;;;;;;;;;5051161;28;20044;-63
2022/11/09 10:55:16;;;;;;;6.22;1.40;;;;;;;;;;5051897;28;20107;-63
2022/11/09 10:58:14;;;;;;;7.97;1.38;;;;;;;;;;5052687;28;20025;-64
2022/11/09 11:00:54;;;;;;;4.90;1.33;;;;;;;;;;5061159;28;20027;-64
2022/11/09 11:03:23;;;;;;;6.60;1.50;;;;;;;;;;5051866;28;20362;-63
2022/11/09 11:05:55;;;;;;;6.85;1.35;;;;;;;;;;5051787;28;20009;-64
2022/11/09 11:08:31;;;;;;;7.30;1.50;;;;;;;;;;5051681;28;20013;-63
2022/11/09 11:11:07;;;;;;;10.95;2.88;;;;;;;;;;5051665;28;20009;-64
2022/11/09 11:13:32;;;;;;;7.97;1.70;;;;;;;;;;5051887;28;20618;-64
2022/11/09 11:15:57;;;;;;;7.40;1.40;;;;;;;;;;5051847;28;20059;-63
2022/11/09 11:18:24;;;;;;;7.75;1.52;;;;;;;;;;5050402;28;20013;-64
2022/11/09 11:21:06;;;;;;;8.13;1.52;;;;;;;;;;5051599;28;20017;-64
2022/11/09 11:23:35;;;;;;;5.22;1.30;;;;;;;;;;5052016;28;20464;-64
2022/11/09 11:26:19;;;;;;;9.13;1.55;;;;;;;;;;5051467;28;20095;-64
2022/11/09 11:28:49;;;;;;;7.70;1.33;;;;;;;;;;5049835;28;20543;-65
2022/11/09 11:31:16;;;;;;;7.32;1.30;;;;;;;;;;5051475;28;20027;-64
2022/11/09 11:33:41;;;;;;;7.40;1.55;;;;;;;;;;5050423;28;20017;-64
2022/11/09 11:36:10;;;;;;;6.68;1.30;;;;;;;;;;5051335;28;20024;-64
2022/11/09 11:38:40;;;;;;;6.35;1.40;;;;;;;;;;5051420;28;20144;-64
2022/11/09 11:41:08;;;;;;;7.00;1.40;;;;;;;;;;5051546;28;20052;-64
2022/11/09 11:43:51;;;;;;;7.22;1.58;;;;;;;;;;5050435;28;20066;-63
2022/11/09 11:46:26;;;;;;;4.50;1.00;;;;;;;;;;5051256;28;20383;-64
2022/11/09 11:49:00;;;;;;;10.73;1.50;;;;;;;;;;5051629;28;20372;-63
2022/11/09 11:51:35;;;;;;;6.13;1.10;;;;;;;;;;5050084;28;20059;-64
2022/11/09 11:54:09;;;;;;;3.60;1.05;;;;;;;;;;5051606;28;20032;-64
2022/11/09 11:56:42;;;;;;;7.10;1.20;;;;;;;;;;5051058;28;20124;-64
2022/11/09 11:59:27;;;;;;;5.65;1.05;;;;;;;;;;5047210;28;20021;-63
2022/11/09 12:02:12;;;;;;;6.32;1.48;;;;;;;;;;5069940;28;20071;-64
2022/11/09 12:04:50;;;;;;;4.75;1.13;;;;;;;;;;5065590;28;20032;-64
2022/11/09 12:07:24;;;;;;;6.80;1.23;;;;;;;;;;5070021;28;20379;-63
2022/11/09 12:10:01;;;;;;;5.32;1.30;;;;;;;;;;5050776;28;20036;-64
2022/11/09 12:12:45;;;;;;;8.38;1.75;;;;;;;;;;5050917;28;20092;-63
2022/11/09 12:15:21;;;;;;;7.53;1.30;;;;;;;;;;5051133;28;20328;-65
2022/11/09 12:17:55;;;;;;;9.13;1.70;;;;;;;;;;5050532;28;20096;-64
2022/11/09 12:20:47;;;;;;;4.47;1.40;;;;;;;;;;5049084;28;20134;-63
2022/11/09 12:23:22;;;;;;;9.10;1.90;;;;;;;;;;5051058;28;20070;-63
2022/11/09 12:25:47;;;;;;;4.53;1.20;;;;;;;;;;5049999;28;20547;-64
2022/11/09 12:28:28;;;;;;;7.82;1.65;;;;;;;;;;5050812;28;20033;-64
2022/11/09 12:30:59;;;;;;;6.07;1.60;;;;;;;;;;5050514;28;20031;-63
2022/11/09 12:33:33;;;;;;;5.68;1.40;;;;;;;;;;5050367;28;20400;-64
2022/11/09 12:36:02;;;;;;;4.38;1.00;;;;;;;;;;5050548;28;20056;-64
2022/11/09 12:38:36;;;;;;;4.60;1.42;;;;;;;;;;5050252;28;20040;-63
2022/11/09 12:41:12;;;;;;;8.73;1.80;;;;;;;;;;5050902;28;20021;-64
2022/11/09 12:43:56;;;;;;;6.32;1.60;;;;;;;;;;5061473;28;20013;-64
2022/11/09 12:46:25;;;;;;;6.32;1.20;;;;;;;;;;5069255;28;20025;-65
2022/11/09 12:49:16;;;;;;;5.57;1.25;;;;;;;;;;5055517;28;20013;-64
2022/11/09 12:51:43;;;;;;;7.05;1.35;;;;;;;;;;5050462;28;20108;-64
2022/11/09 12:54:36;;;;;;;5.65;1.52;;;;;;;;;;5049627;28;20079;-64
2022/11/09 12:57:12;;;;;;;6.25;1.25;;;;;;;;;;5050497;28;20472;-64
2022/11/09 12:59:52;;;;;;;5.38;1.15;;;;;;;;;;5043806;28;20028;-63
2022/11/09 13:02:40;;;;;;;4.47;1.00;;;;;;;;;;5050651;28;20021;-64
2022/11/09 13:05:29;;;;;;;7.45;1.35;;;;;;;;;;5050624;28;20021;-64
2022/11/09 13:08:06;;;;;;;4.97;1.00;;;;;;;;;;5053109;28;20029;-64
2022/11/09 13:10:36;;;;;;;3.00;0.80;;;;;;;;;;5054270;28;20048;-64
2022/11/09 13:13:17;;;;;;;6.93;1.40;;;;;;;;;;5054291;28;20409;-64
2022/11/09 13:16:01;;;;;;;6.35;1.25;;;;;;;;;;5053870;28;20464;-64
2022/11/09 13:18:29;;;;;;;4.82;1.13;;;;;;;;;;5064582;28;20025;-64
2022/11/09 13:20:55;;;;;;;5.45;1.23;;;;;;;;;;5071610;28;20020;-64
2022/11/09 13:23:27;;;;;;;10.20;1.33;;;;;;;;;;5053982;28;20009;-63
2022/11/09 13:25:53;;;;;;;4.03;1.20;;;;;;;;;;5054108;28;20473;-64
2022/11/09 13:28:27;;;;;;;5.38;1.02;;;;;;;;;;5053809;28;20157;-64
2022/11/09 13:30:57;;;;;;;5.18;1.52;;;;;;;;;;5055422;28;20530;-64
2022/11/09 13:33:28;;;;;;;6.03;1.65;;;;;;;;;;5052925;28;20443;-64
2022/11/09 13:35:54;;;;;;;8.15;1.10;;;;;;;;;;5053444;28;20025;-65
2022/11/09 13:38:20;;;;;;;6.38;1.45;;;;;;;;;;5053615;28;20028;-64
2022/11/09 13:40:49;;;;;;;7.13;1.60;;;;;;;;;;5052676;28;20009;-64
2022/11/09 13:43:16;;;;;;;4.03;1.10;;;;;;;;;;5053644;28;20502;-64
2022/11/09 13:45:41;;;;;;;7.50;1.35;;;;;;;;;;5053738;28;20079;-64
2022/11/09 13:48:22;;;;;;;6.55;1.40;;;;;;;;;;5053496;28;20060;-64
2022/11/09 13:50:51;;;;;;;3.50;1.02;;;;;;;;;;5052327;28;20031;-64
2022/11/09 13:53:25;;;;;;;5.78;0.98;;;;;;;;;;5053707;28;20825;-64
2022/11/09 13:55:51;;;;;;;5.90;1.30;;;;;;;;;;5053113;28;20025;-63
2022/11/09 13:58:19;;;;;;;6.55;1.30;;;;;;;;;;5050372;28;20502;-64
2022/11/09 14:00:45;;;;;;;5.45;1.17;;;;;;;;;;5053153;28;20103;-64
2022/11/09 14:03:17;;;;;;;6.55;1.02;;;;;;;;;;5052890;28;20364;-64
2022/11/09 14:05:43;;;;;;;5.13;1.10;;;;;;;;;;5053382;28;20035;-64
2022/11/09 14:08:14;;;;;;;6.32;1.00;;;;;;;;;;5052200;28;20040;-63
2022/11/09 14:10:45;;;;;;;5.72;1.20;;;;;;;;;;5071881;28;20028;-64
2022/11/09 14:13:19;;;;;;;4.90;1.00;;;;;;;;;;5071893;28;20016;-64
2022/11/09 14:15:57;;;;;;;4.35;1.00;;;;;;;;;;5071480;28;20029;-64
2022/11/09 14:18:25;;;;;;;5.82;1.02;;;;;;;;;;5070731;28;20028;-64
2022/11/09 14:21:04;;;;;;;6.85;1.23;;;;;;;;;;5071540;28;20468;-64
2022/11/09 14:23:30;;;;;;;5.20;1.08;;;;;;;;;;5063883;28;20664;-64
2022/11/09 14:25:55;;;;;;;5.05;1.13;;;;;;;;;;5052363;28;20476;-64
2022/11/09 14:28:27;;;;;;;8.50;1.20;;;;;;;;;;5052795;28;20040;-64
2022/11/09 14:30:53;;;;;;;6.50;1.40;;;;;;;;;;5052908;28;20105;-63
2022/11/09 14:33:23;;;;;;;8.10;1.50;;;;;;;;;;5052331;28;20531;-64
2022/11/09 14:35:48;;;;;;;4.82;1.13;;;;;;;;;;5052722;28;20631;-63
2022/11/09 14:38:16;;;;;;;5.15;1.05;;;;;;;;;;5052766;28;20116;-64
2022/11/09 14:40:46;;;;;;;6.15;1.52;;;;;;;;;;5051746;28;20134;-63
2022/11/09 14:43:17;;;;;;;5.82;1.52;;;;;;;;;;5052318;28;20036;-63
2022/11/09 14:45:52;;;;;;;7.18;1.40;;;;;;;;;;5052197;28;20542;-63
2022/11/09 14:48:18;;;;;;;6.05;1.05;;;;;;;;;;5056849;28;20055;-64
2022/11/09 14:50:43;;;;;;;4.63;1.10;;;;;;;;;;5070542;28;20028;-64
2022/11/09 14:53:17;;;;;;;7.07;1.23;;;;;;;;;;5071459;28;20093;-64
2022/11/09 14:55:44;;;;;;;5.63;1.10;;;;;;;;;;5071119;28;20024;-64
2022/11/09 14:58:11;;;;;;;4.78;1.23;;;;;;;;;;5063366;28;20040;-64